sensor_id;sensor_type;location;lat;lon;timestamp;pressure;altitude;pressure_sealevel;temperature;humidity
80335;BME280;69653;52.674;13.574;2023-08-20T00:01:58;100983.09;;;24.19;67.50
80335;BME280;69653;52.674;13.574;2023-08-20T00:04:26;100971.44;;;24.13;67.54
80335;BME280;69653;52.674;13.574;2023-08-20T00:06:53;100973.91;;;24.19;67.67
80335;BME280;69653;52.674;13.574;2023-08-20T00:09:18;100978.25;;;24.16;67.79
80335;BME280;69653;52.674;13.574;2023-08-20T00:11:44;100953.72;;;24.02;68.43
80335;BME280;69653;52.674;13.574;2023-08-20T00:14:16;100979.75;;;24.10;69.42
80335;BME280;69653;52.674;13.574;2023-08-20T00:16:42;100978.50;;;24.04;70.08
80335;BME280;69653;52.674;13.574;2023-08-20T00:19:08;100975.28;;;24.02;70.21
80335;BME280;69653;52.674;13.574;2023-08-20T00:21:33;100984.81;;;24.01;69.96
80335;BME280;69653;52.674;13.574;2023-08-20T00:24:00;100982.47;;;24.03;69.58
80335;BME280;69653;52.674;13.574;2023-08-20T00:26:25;100983.28;;;24.03;69.75
80335;BME280;69653;52.674;13.574;2023-08-20T00:28:51;100992.53;;;24.11;69.58
80335;BME280;69653;52.674;13.574;2023-08-20T00:31:16;101000.22;;;24.18;69.71
80335;BME280;69653;52.674;13.574;2023-08-20T00:33:42;101003.59;;;24.00;70.03
80335;BME280;69653;52.674;13.574;2023-08-20T00:36:07;101008.44;;;24.03;70.01
80335;BME280;69653;52.674;13.574;2023-08-20T00:38:32;101016.03;;;24.06;69.95
80335;BME280;69653;52.674;13.574;2023-08-20T00:40:58;101016.00;;;24.03;69.96
80335;BME280;69653;52.674;13.574;2023-08-20T00:43:23;101025.69;;;24.12;69.54
80335;BME280;69653;52.674;13.574;2023-08-20T00:45:48;101023.28;;;24.11;69.42
80335;BME280;69653;52.674;13.574;2023-08-20T00:48:13;101031.75;;;24.14;69.37
80335;BME280;69653;52.674;13.574;2023-08-20T00:50:40;101031.00;;;24.21;69.09
80335;BME280;69653;52.674;13.574;2023-08-20T00:53:07;101039.81;;;24.23;69.23
80335;BME280;69653;52.674;13.574;2023-08-20T00:55:33;101038.97;;;24.19;69.12
80335;BME280;69653;52.674;13.574;2023-08-20T00:57:58;101031.25;;;24.12;69.33
80335;BME280;69653;52.674;13.574;2023-08-20T01:00:24;101028.38;;;24.05;69.67
80335;BME280;69653;52.674;13.574;2023-08-20T01:02:49;101015.44;;;23.90;70.08
80335;BME280;69653;52.674;13.574;2023-08-20T01:05:15;101014.94;;;23.81;70.43
80335;BME280;69653;52.674;13.574;2023-08-20T01:10:54;101036.38;;;23.74;71.47
80335;BME280;69653;52.674;13.574;2023-08-20T01:13:21;101031.06;;;23.65;72.23
80335;BME280;69653;52.674;13.574;2023-08-20T01:15:46;101028.97;;;23.58;72.17
80335;BME280;69653;52.674;13.574;2023-08-20T01:18:12;101028.44;;;23.49;72.80
80335;BME280;69653;52.674;13.574;2023-08-20T01:20:42;101031.38;;;23.34;73.29
80335;BME280;69653;52.674;13.574;2023-08-20T01:28:32;101028.75;;;22.95;75.33
80335;BME280;69653;52.674;13.574;2023-08-20T01:30:58;101043.00;;;22.90;75.91
80335;BME280;69653;52.674;13.574;2023-08-20T01:33:25;101039.78;;;22.88;75.75
80335;BME280;69653;52.674;13.574;2023-08-20T01:35:51;101037.38;;;22.87;75.72
80335;BME280;69653;52.674;13.574;2023-08-20T01:38:16;101046.25;;;22.92;75.11
80335;BME280;69653;52.674;13.574;2023-08-20T01:40:42;101043.06;;;22.94;75.24
80335;BME280;69653;52.674;13.574;2023-08-20T01:43:07;101042.75;;;22.99;74.82
80335;BME280;69653;52.674;13.574;2023-08-20T01:45:33;101047.59;;;23.02;74.56
80335;BME280;69653;52.674;13.574;2023-08-20T01:47:58;101038.53;;;23.08;74.22
80335;BME280;69653;52.674;13.574;2023-08-20T01:50:24;101040.69;;;23.18;73.79
80335;BME280;69653;52.674;13.574;2023-08-20T01:52:49;101042.34;;;23.23;73.68
80335;BME280;69653;52.674;13.574;2023-08-20T01:55:14;101041.78;;;23.37;73.00
80335;BME280;69653;52.674;13.574;2023-08-20T01:57:40;101040.00;;;23.48;72.08
80335;BME280;69653;52.674;13.574;2023-08-20T02:00:05;101053.84;;;23.67;71.57
80335;BME280;69653;52.674;13.574;2023-08-20T02:02:32;101053.16;;;23.77;71.36
80335;BME280;69653;52.674;13.574;2023-08-20T02:04:57;101048.84;;;23.83;70.44
80335;BME280;69653;52.674;13.574;2023-08-20T02:07:23;101050.56;;;23.91;70.43
80335;BME280;69653;52.674;13.574;2023-08-20T02:09:48;101055.44;;;23.98;70.41
80335;BME280;69653;52.674;13.574;2023-08-20T02:12:14;101046.16;;;23.90;70.26
80335;BME280;69653;52.674;13.574;2023-08-20T02:14:39;101047.34;;;23.89;70.71
80335;BME280;69653;52.674;13.574;2023-08-20T02:17:06;101043.72;;;23.85;70.84
80335;BME280;69653;52.674;13.574;2023-08-20T02:19:31;101050.47;;;23.84;70.91
80335;BME280;69653;52.674;13.574;2023-08-20T02:21:57;101061.31;;;23.89;71.07
80335;BME280;69653;52.674;13.574;2023-08-20T02:24:22;101065.66;;;23.87;71.26
80335;BME280;69653;52.674;13.574;2023-08-20T02:26:47;101066.47;;;23.87;71.37
80335;BME280;69653;52.674;13.574;2023-08-20T02:29:13;101062.50;;;23.88;71.35
80335;BME280;69653;52.674;13.574;2023-08-20T02:31:38;101073.31;;;23.93;71.10
80335;BME280;69653;52.674;13.574;2023-08-20T02:34:03;101068.94;;;23.92;71.59
80335;BME280;69653;52.674;13.574;2023-08-20T02:36:29;101068.53;;;23.94;71.42
80335;BME280;69653;52.674;13.574;2023-08-20T02:38:54;101072.94;;;23.95;71.63
80335;BME280;69653;52.674;13.574;2023-08-20T02:41:19;101080.56;;;23.98;71.73
80335;BME280;69653;52.674;13.574;2023-08-20T02:43:45;101085.78;;;23.99;71.77
80335;BME280;69653;52.674;13.574;2023-08-20T02:46:10;101075.38;;;23.96;71.78
80335;BME280;69653;52.674;13.574;2023-08-20T02:48:36;101084.94;;;23.95;71.61
80335;BME280;69653;52.674;13.574;2023-08-20T02:51:01;101076.13;;;23.93;71.57
80335;BME280;69653;52.674;13.574;2023-08-20T02:53:27;101087.78;;;23.99;71.87
80335;BME280;69653;52.674;13.574;2023-08-20T02:55:53;101092.50;;;23.95;72.03
80335;BME280;69653;52.674;13.574;2023-08-20T02:58:18;101084.50;;;23.93;72.33
80335;BME280;69653;52.674;13.574;2023-08-20T03:00:44;101087.69;;;23.92;72.17
80335;BME280;69653;52.674;13.574;2023-08-20T03:03:10;101059.47;;;23.71;72.18
80335;BME280;69653;52.674;13.574;2023-08-20T03:05:35;101092.78;;;23.86;72.72
80335;BME280;69653;52.674;13.574;2023-08-20T03:08:02;101090.69;;;23.80;72.54
80335;BME280;69653;52.674;13.574;2023-08-20T03:10:29;101097.09;;;23.80;72.73
80335;BME280;69653;52.674;13.574;2023-08-20T03:12:55;101107.50;;;23.83;72.71
80335;BME280;69653;52.674;13.574;2023-08-20T03:15:20;101113.13;;;23.87;72.76
80335;BME280;69653;52.674;13.574;2023-08-20T03:17:45;101121.47;;;23.83;72.42
80335;BME280;69653;52.674;13.574;2023-08-20T03:20:11;101115.47;;;23.81;72.80
80335;BME280;69653;52.674;13.574;2023-08-20T03:22:37;101112.06;;;23.68;73.42
80335;BME280;69653;52.674;13.574;2023-08-20T03:25:03;101113.19;;;23.64;73.58
80335;BME280;69653;52.674;13.574;2023-08-20T03:27:29;101111.91;;;23.58;73.67
80335;BME280;69653;52.674;13.574;2023-08-20T03:29:54;101119.47;;;23.57;73.97
80335;BME280;69653;52.674;13.574;2023-08-20T03:32:19;101114.28;;;23.56;74.37
80335;BME280;69653;52.674;13.574;2023-08-20T03:34:44;101121.91;;;23.59;74.12
80335;BME280;69653;52.674;13.574;2023-08-20T03:37:10;101119.97;;;23.63;74.01
80335;BME280;69653;52.674;13.574;2023-08-20T03:39:35;101128.81;;;23.68;73.94
80335;BME280;69653;52.674;13.574;2023-08-20T03:42:00;101116.75;;;23.61;73.79
80335;BME280;69653;52.674;13.574;2023-08-20T03:44:26;101138.00;;;23.69;73.67
80335;BME280;69653;52.674;13.574;2023-08-20T03:46:51;101141.22;;;23.71;73.47
80335;BME280;69653;52.674;13.574;2023-08-20T03:49:17;101137.66;;;23.71;73.83
80335;BME280;69653;52.674;13.574;2023-08-20T03:51:42;101133.13;;;23.62;73.93
80335;BME280;69653;52.674;13.574;2023-08-20T03:54:08;101139.06;;;23.61;74.00
80335;BME280;69653;52.674;13.574;2023-08-20T03:56:34;101135.91;;;23.62;74.44
80335;BME280;69653;52.674;13.574;2023-08-20T03:58:59;101129.47;;;23.58;74.09
80335;BME280;69653;52.674;13.574;2023-08-20T04:01:24;101133.31;;;23.50;74.35
80335;BME280;69653;52.674;13.574;2023-08-20T04:03:49;101132.94;;;23.29;75.75
80335;BME280;69653;52.674;13.574;2023-08-20T04:06:15;101134.56;;;23.07;76.59
80335;BME280;69653;52.674;13.574;2023-08-20T04:08:40;101120.16;;;22.83;77.69
80335;BME280;69653;52.674;13.574;2023-08-20T04:11:06;101126.75;;;22.75;77.65
80335;BME280;69653;52.674;13.574;2023-08-20T04:13:31;101130.88;;;22.61;78.50
80335;BME280;69653;52.674;13.574;2023-08-20T04:15:57;101150.59;;;22.53;79.11
80335;BME280;69653;52.674;13.574;2023-08-20T04:18:22;101148.41;;;22.43;79.50
80335;BME280;69653;52.674;13.574;2023-08-20T04:20:50;101157.03;;;22.38;79.98
80335;BME280;69653;52.674;13.574;2023-08-20T04:23:16;101166.88;;;22.32;80.41
80335;BME280;69653;52.674;13.574;2023-08-20T04:25:41;101169.19;;;22.30;80.32
80335;BME280;69653;52.674;13.574;2023-08-20T04:28:07;101165.56;;;22.26;80.31
80335;BME280;69653;52.674;13.574;2023-08-20T04:30:35;101161.50;;;22.23;80.16
80335;BME280;69653;52.674;13.574;2023-08-20T04:33:01;101164.28;;;22.23;80.88
80335;BME280;69653;52.674;13.574;2023-08-20T04:35:26;101168.19;;;22.38;80.28
80335;BME280;69653;52.674;13.574;2023-08-20T04:37:52;101168.28;;;22.60;79.61
80335;BME280;69653;52.674;13.574;2023-08-20T04:40:17;101151.50;;;22.76;78.80
80335;BME280;69653;52.674;13.574;2023-08-20T04:42:43;101167.16;;;23.03;77.89
80335;BME280;69653;52.674;13.574;2023-08-20T04:45:08;101167.78;;;23.16;77.13
80335;BME280;69653;52.674;13.574;2023-08-20T04:47:34;101169.16;;;23.26;76.64
80335;BME280;69653;52.674;13.574;2023-08-20T04:49:59;101161.47;;;23.42;75.86
80335;BME280;69653;52.674;13.574;2023-08-20T04:52:25;101155.72;;;23.54;75.40
80335;BME280;69653;52.674;13.574;2023-08-20T04:54:50;101161.91;;;23.66;75.35
80335;BME280;69653;52.674;13.574;2023-08-20T04:57:15;101161.63;;;23.75;74.80
80335;BME280;69653;52.674;13.574;2023-08-20T04:59:41;101164.28;;;23.91;74.39
80335;BME280;69653;52.674;13.574;2023-08-20T05:02:10;101180.81;;;24.03;73.69
80335;BME280;69653;52.674;13.574;2023-08-20T05:04:36;101179.69;;;24.07;73.57
80335;BME280;69653;52.674;13.574;2023-08-20T05:07:01;101188.53;;;24.13;73.20
80335;BME280;69653;52.674;13.574;2023-08-20T05:09:27;101175.09;;;24.19;72.87
80335;BME280;69653;52.674;13.574;2023-08-20T05:11:52;101165.63;;;24.27;73.01
80335;BME280;69653;52.674;13.574;2023-08-20T05:14:18;101160.19;;;24.37;72.27
80335;BME280;69653;52.674;13.574;2023-08-20T05:16:43;101160.34;;;24.51;71.92
80335;BME280;69653;52.674;13.574;2023-08-20T05:19:08;101164.91;;;24.63;70.86
80335;BME280;69653;52.674;13.574;2023-08-20T05:21:33;101183.09;;;24.83;71.04
80335;BME280;69653;52.674;13.574;2023-08-20T05:23:59;101183.19;;;24.90;70.36
80335;BME280;69653;52.674;13.574;2023-08-20T05:26:24;101200.22;;;25.08;69.86
80335;BME280;69653;52.674;13.574;2023-08-20T05:28:49;101193.00;;;25.07;69.91
80335;BME280;69653;52.674;13.574;2023-08-20T05:31:15;101172.22;;;25.08;69.53
80335;BME280;69653;52.674;13.574;2023-08-20T05:33:40;101164.72;;;25.16;69.70
80335;BME280;69653;52.674;13.574;2023-08-20T05:36:05;101183.63;;;25.29;69.00
80335;BME280;69653;52.674;13.574;2023-08-20T05:38:31;101188.97;;;25.45;68.96
80335;BME280;69653;52.674;13.574;2023-08-20T05:40:56;101200.38;;;25.66;67.85
80335;BME280;69653;52.674;13.574;2023-08-20T05:43:21;101215.88;;;26.00;65.82
80335;BME280;69653;52.674;13.574;2023-08-20T05:45:47;101213.38;;;25.88;65.90
80335;BME280;69653;52.674;13.574;2023-08-20T05:48:12;101213.97;;;25.64;67.11
80335;BME280;69653;52.674;13.574;2023-08-20T05:50:37;101214.28;;;25.52;67.29
80335;BME280;69653;52.674;13.574;2023-08-20T05:53:03;101216.13;;;25.41;67.73
80335;BME280;69653;52.674;13.574;2023-08-20T05:55:28;101222.16;;;25.46;67.31
80335;BME280;69653;52.674;13.574;2023-08-20T05:57:53;101226.75;;;25.62;67.23
80335;BME280;69653;52.674;13.574;2023-08-20T06:00:19;101218.38;;;25.65;67.43
80335;BME280;69653;52.674;13.574;2023-08-20T06:02:44;101229.25;;;25.74;66.64
80335;BME280;69653;52.674;13.574;2023-08-20T06:05:09;101230.84;;;25.71;66.59
80335;BME280;69653;52.674;13.574;2023-08-20T06:07:35;101232.22;;;25.51;67.40
80335;BME280;69653;52.674;13.574;2023-08-20T06:10:00;101239.78;;;25.47;67.25
80335;BME280;69653;52.674;13.574;2023-08-20T06:12:25;101222.63;;;25.12;68.28
80335;BME280;69653;52.674;13.574;2023-08-20T06:14:50;101232.25;;;25.14;68.55
80335;BME280;69653;52.674;13.574;2023-08-20T06:17:16;101221.31;;;25.42;67.48
80335;BME280;69653;52.674;13.574;2023-08-20T06:19:41;101209.53;;;25.60;66.78
80335;BME280;69653;52.674;13.574;2023-08-20T06:22:07;101218.28;;;25.54;66.85
80335;BME280;69653;52.674;13.574;2023-08-20T06:24:32;101217.19;;;25.66;66.48
80335;BME280;69653;52.674;13.574;2023-08-20T06:26:57;101228.00;;;25.68;66.23
80335;BME280;69653;52.674;13.574;2023-08-20T06:29:23;101226.72;;;25.58;66.21
80335;BME280;69653;52.674;13.574;2023-08-20T06:31:48;101238.16;;;25.83;65.87
80335;BME280;69653;52.674;13.574;2023-08-20T06:34:15;101226.47;;;25.77;66.25
80335;BME280;69653;52.674;13.574;2023-08-20T06:36:40;101226.91;;;25.79;65.58
80335;BME280;69653;52.674;13.574;2023-08-20T06:39:05;101230.19;;;25.48;66.72
80335;BME280;69653;52.674;13.574;2023-08-20T06:41:31;101245.78;;;25.45;66.93
80335;BME280;69653;52.674;13.574;2023-08-20T06:43:56;101244.13;;;25.41;67.01
80335;BME280;69653;52.674;13.574;2023-08-20T06:46:21;101255.03;;;25.49;66.96
80335;BME280;69653;52.674;13.574;2023-08-20T06:48:47;101259.91;;;25.56;66.24
80335;BME280;69653;52.674;13.574;2023-08-20T06:51:15;101267.97;;;25.65;66.43
80335;BME280;69653;52.674;13.574;2023-08-20T06:53:41;101261.69;;;25.75;66.07
80335;BME280;69653;52.674;13.574;2023-08-20T06:56:10;101267.78;;;26.31;64.31
80335;BME280;69653;52.674;13.574;2023-08-20T06:58:37;101278.34;;;26.59;63.42
80335;BME280;69653;52.674;13.574;2023-08-20T07:01:03;101276.41;;;26.70;63.21
80335;BME280;69653;52.674;13.574;2023-08-20T07:03:35;101283.97;;;26.63;62.92
80335;BME280;69653;52.674;13.574;2023-08-20T07:06:01;101273.06;;;26.47;63.46
80335;BME280;69653;52.674;13.574;2023-08-20T07:08:26;101271.75;;;26.27;63.83
80335;BME280;69653;52.674;13.574;2023-08-20T07:10:52;101270.91;;;26.23;64.27
80335;BME280;69653;52.674;13.574;2023-08-20T07:13:17;101277.22;;;26.13;64.01
80335;BME280;69653;52.674;13.574;2023-08-20T07:15:42;101279.19;;;26.09;64.10
80335;BME280;69653;52.674;13.574;2023-08-20T07:18:07;101286.84;;;26.15;64.42
80335;BME280;69653;52.674;13.574;2023-08-20T07:20:33;101299.88;;;26.41;63.13
80335;BME280;69653;52.674;13.574;2023-08-20T07:22:58;101298.44;;;26.65;63.00
80335;BME280;69653;52.674;13.574;2023-08-20T07:25:23;101292.03;;;26.68;62.17
80335;BME280;69653;52.674;13.574;2023-08-20T07:27:49;101291.59;;;26.62;62.51
80335;BME280;69653;52.674;13.574;2023-08-20T07:30:16;101293.53;;;26.51;62.86
80335;BME280;69653;52.674;13.574;2023-08-20T07:32:41;101287.44;;;26.38;63.44
80335;BME280;69653;52.674;13.574;2023-08-20T07:35:06;101309.44;;;26.33;63.45
80335;BME280;69653;52.674;13.574;2023-08-20T07:37:33;101315.28;;;26.17;63.96
80335;BME280;69653;52.674;13.574;2023-08-20T07:39:58;101307.59;;;26.07;64.66
80335;BME280;69653;52.674;13.574;2023-08-20T07:42:23;101295.31;;;26.19;63.97
80335;BME280;69653;52.674;13.574;2023-08-20T07:44:49;101304.66;;;26.37;63.09
80335;BME280;69653;52.674;13.574;2023-08-20T07:47:14;101304.63;;;26.33;62.91
80335;BME280;69653;52.674;13.574;2023-08-20T07:49:39;101313.81;;;26.27;63.42
80335;BME280;69653;52.674;13.574;2023-08-20T07:52:05;101315.69;;;26.16;63.52
80335;BME280;69653;52.674;13.574;2023-08-20T07:54:30;101313.19;;;26.07;63.74
80335;BME280;69653;52.674;13.574;2023-08-20T07:56:56;101323.56;;;26.03;63.91
80335;BME280;69653;52.674;13.574;2023-08-20T07:59:22;101321.94;;;26.02;63.75
80335;BME280;69653;52.674;13.574;2023-08-20T08:01:47;101326.28;;;25.92;63.71
80335;BME280;69653;52.674;13.574;2023-08-20T08:04:13;101335.19;;;26.01;63.57
80335;BME280;69653;52.674;13.574;2023-08-20T08:06:38;101333.09;;;25.95;63.74
80335;BME280;69653;52.674;13.574;2023-08-20T08:09:21;101331.00;;;25.85;64.19
80335;BME280;69653;52.674;13.574;2023-08-20T08:11:47;101335.47;;;25.89;64.84
80335;BME280;69653;52.674;13.574;2023-08-20T08:14:12;101320.19;;;25.83;64.54
80335;BME280;69653;52.674;13.574;2023-08-20T08:16:37;101322.97;;;25.83;64.49
80335;BME280;69653;52.674;13.574;2023-08-20T08:19:03;101329.13;;;25.96;64.34
80335;BME280;69653;52.674;13.574;2023-08-20T08:21:28;101338.06;;;26.09;63.51
80335;BME280;69653;52.674;13.574;2023-08-20T08:23:53;101331.22;;;26.10;63.70
80335;BME280;69653;52.674;13.574;2023-08-20T08:26:19;101342.09;;;26.15;63.97
80335;BME280;69653;52.674;13.574;2023-08-20T08:28:44;101336.66;;;26.32;62.68
80335;BME280;69653;52.674;13.574;2023-08-20T08:31:09;101339.09;;;26.34;62.62
80335;BME280;69653;52.674;13.574;2023-08-20T08:33:35;101334.31;;;26.38;62.36
80335;BME280;69653;52.674;13.574;2023-08-20T08:36:00;101332.75;;;26.47;61.71
80335;BME280;69653;52.674;13.574;2023-08-20T08:38:25;101336.06;;;26.60;61.81
80335;BME280;69653;52.674;13.574;2023-08-20T08:40:51;101349.81;;;26.79;61.09
80335;BME280;69653;52.674;13.574;2023-08-20T08:43:18;101335.31;;;26.67;61.79
80335;BME280;69653;52.674;13.574;2023-08-20T08:45:47;101333.75;;;26.76;62.32
80335;BME280;69653;52.674;13.574;2023-08-20T08:48:15;101350.00;;;27.08;60.65
80335;BME280;69653;52.674;13.574;2023-08-20T08:50:42;101343.72;;;27.39;59.79
80335;BME280;69653;52.674;13.574;2023-08-20T08:53:08;101339.38;;;27.66;58.58
80335;BME280;69653;52.674;13.574;2023-08-20T08:55:33;101351.88;;;27.86;57.91
80335;BME280;69653;52.674;13.574;2023-08-20T08:57:59;101346.66;;;27.88;58.15
80335;BME280;69653;52.674;13.574;2023-08-20T09:00:24;101345.44;;;27.93;57.71
80335;BME280;69653;52.674;13.574;2023-08-20T09:02:49;101339.44;;;27.80;57.85
80335;BME280;69653;52.674;13.574;2023-08-20T09:05:15;101332.94;;;27.59;59.03
80335;BME280;69653;52.674;13.574;2023-08-20T09:07:42;101328.50;;;27.47;59.13
80335;BME280;69653;52.674;13.574;2023-08-20T09:10:09;101324.06;;;27.42;58.99
80335;BME280;69653;52.674;13.574;2023-08-20T09:12:34;101329.31;;;27.58;58.76
80335;BME280;69653;52.674;13.574;2023-08-20T09:15:01;101322.53;;;27.70;58.16
80335;BME280;69653;52.674;13.574;2023-08-20T09:17:26;101318.94;;;27.73;57.84
80335;BME280;69653;52.674;13.574;2023-08-20T09:19:55;101310.09;;;27.78;57.71
80335;BME280;69653;52.674;13.574;2023-08-20T09:22:21;101321.41;;;28.13;56.83
80335;BME280;69653;52.674;13.574;2023-08-20T09:24:53;101315.78;;;28.27;56.66
80335;BME280;69653;52.674;13.574;2023-08-20T09:27:20;101314.97;;;28.30;56.70
80335;BME280;69653;52.674;13.574;2023-08-20T09:29:47;101313.69;;;28.84;55.76
80335;BME280;69653;52.674;13.574;2023-08-20T09:32:23;101318.75;;;29.32;54.10
80335;BME280;69653;52.674;13.574;2023-08-20T09:34:49;101317.13;;;29.97;52.05
80335;BME280;69653;52.674;13.574;2023-08-20T09:37:17;101324.88;;;29.78;52.62
80335;BME280;69653;52.674;13.574;2023-08-20T09:39:43;101317.66;;;29.77;51.79
80335;BME280;69653;52.674;13.574;2023-08-20T09:42:09;101318.22;;;30.10;51.40
80335;BME280;69653;52.674;13.574;2023-08-20T09:44:36;101311.94;;;30.36;49.71
80335;BME280;69653;52.674;13.574;2023-08-20T09:47:05;101315.06;;;30.86;49.39
80335;BME280;69653;52.674;13.574;2023-08-20T09:49:32;101320.91;;;31.06;48.71
80335;BME280;69653;52.674;13.574;2023-08-20T09:52:06;101327.38;;;31.37;47.12
80335;BME280;69653;52.674;13.574;2023-08-20T09:54:48;101333.63;;;31.51;47.20
80335;BME280;69653;52.674;13.574;2023-08-20T09:57:27;101337.03;;;31.96;46.87
80335;BME280;69653;52.674;13.574;2023-08-20T09:59:55;101334.41;;;32.32;46.19
80335;BME280;69653;52.674;13.574;2023-08-20T10:02:21;101336.84;;;32.77;44.82
80335;BME280;69653;52.674;13.574;2023-08-20T10:04:47;101337.25;;;32.55;44.81
80335;BME280;69653;52.674;13.574;2023-08-20T10:07:14;101343.38;;;32.04;45.95
80335;BME280;69653;52.674;13.574;2023-08-20T10:09:40;101340.97;;;31.75;46.62
80335;BME280;69653;52.674;13.574;2023-08-20T10:12:06;101346.56;;;32.06;46.23
80335;BME280;69653;52.674;13.574;2023-08-20T10:14:32;101342.41;;;32.14;45.11
80335;BME280;69653;52.674;13.574;2023-08-20T10:16:57;101335.81;;;32.44;45.77
80335;BME280;69653;52.674;13.574;2023-08-20T10:19:23;101345.06;;;32.48;44.80
80335;BME280;69653;52.674;13.574;2023-08-20T10:21:52;101345.06;;;32.25;45.44
80335;BME280;69653;52.674;13.574;2023-08-20T10:24:18;101340.44;;;32.11;46.15
80335;BME280;69653;52.674;13.574;2023-08-20T10:26:47;101343.28;;;32.34;46.54
80335;BME280;69653;52.674;13.574;2023-08-20T10:29:39;101338.22;;;32.68;45.09
80335;BME280;69653;52.674;13.574;2023-08-20T10:32:10;101329.97;;;32.78;45.05
80335;BME280;69653;52.674;13.574;2023-08-20T10:34:38;101314.72;;;32.91;44.25
80335;BME280;69653;52.674;13.574;2023-08-20T10:37:12;101319.00;;;32.99;44.00
80335;BME280;69653;52.674;13.574;2023-08-20T10:39:38;101314.34;;;33.29;43.28
80335;BME280;69653;52.674;13.574;2023-08-20T10:42:22;101304.78;;;33.23;43.34
80335;BME280;69653;52.674;13.574;2023-08-20T10:45:07;101307.88;;;33.28;42.83
80335;BME280;69653;52.674;13.574;2023-08-20T10:50:03;101312.69;;;33.67;42.30
80335;BME280;69653;52.674;13.574;2023-08-20T10:52:28;101321.69;;;33.62;42.49
80335;BME280;69653;52.674;13.574;2023-08-20T10:54:56;101309.00;;;33.86;42.01
80335;BME280;69653;52.674;13.574;2023-08-20T10:57:21;101318.03;;;34.30;40.86
80335;BME280;69653;52.674;13.574;2023-08-20T10:59:57;101312.25;;;34.33;40.14
80335;BME280;69653;52.674;13.574;2023-08-20T11:02:26;101309.06;;;33.99;41.11
80335;BME280;69653;52.674;13.574;2023-08-20T11:04:52;101312.16;;;33.88;40.91
80335;BME280;69653;52.674;13.574;2023-08-20T11:07:18;101307.22;;;33.92;40.71
80335;BME280;69653;52.674;13.574;2023-08-20T11:09:44;101314.50;;;33.93;40.46
80335;BME280;69653;52.674;13.574;2023-08-20T11:12:14;101304.28;;;34.12;38.64
80335;BME280;69653;52.674;13.574;2023-08-20T11:14:40;101306.84;;;34.39;37.75
80335;BME280;69653;52.674;13.574;2023-08-20T11:17:05;101310.50;;;34.39;37.41
80335;BME280;69653;52.674;13.574;2023-08-20T11:19:31;101311.38;;;34.36;37.46
80335;BME280;69653;52.674;13.574;2023-08-20T11:21:57;101319.56;;;34.34;36.32
80335;BME280;69653;52.674;13.574;2023-08-20T11:24:22;101313.69;;;33.93;36.69
80335;BME280;69653;52.674;13.574;2023-08-20T11:26:47;101310.75;;;33.80;35.55
80335;BME280;69653;52.674;13.574;2023-08-20T11:29:14;101311.09;;;33.98;35.37
80335;BME280;69653;52.674;13.574;2023-08-20T11:31:44;101320.22;;;34.06;34.41
80335;BME280;69653;52.674;13.574;2023-08-20T11:34:11;101315.81;;;34.37;33.88
80335;BME280;69653;52.674;13.574;2023-08-20T11:36:38;101317.84;;;34.82;34.33
80335;BME280;69653;52.674;13.574;2023-08-20T11:39:04;101315.13;;;34.78;33.11
80335;BME280;69653;52.674;13.574;2023-08-20T11:41:30;101320.25;;;34.83;33.48
80335;BME280;69653;52.674;13.574;2023-08-20T11:43:55;101321.06;;;34.84;33.59
80335;BME280;69653;52.674;13.574;2023-08-20T11:46:22;101313.84;;;35.08;33.68
80335;BME280;69653;52.674;13.574;2023-08-20T11:49:01;101309.56;;;35.29;33.05
80335;BME280;69653;52.674;13.574;2023-08-20T11:51:28;101318.00;;;35.20;32.42
80335;BME280;69653;52.674;13.574;2023-08-20T11:53:55;101313.03;;;35.08;33.01
80335;BME280;69653;52.674;13.574;2023-08-20T11:56:20;101314.28;;;35.06;33.28
80335;BME280;69653;52.674;13.574;2023-08-20T11:58:50;101309.91;;;35.18;32.81
80335;BME280;69653;52.674;13.574;2023-08-20T12:01:17;101302.31;;;34.86;33.30
80335;BME280;69653;52.674;13.574;2023-08-20T12:03:43;101313.06;;;34.50;34.45
80335;BME280;69653;52.674;13.574;2023-08-20T12:06:19;101310.25;;;34.63;34.53
80335;BME280;69653;52.674;13.574;2023-08-20T12:08:45;101313.50;;;34.32;33.50
80335;BME280;69653;52.674;13.574;2023-08-20T12:11:10;101303.03;;;34.29;34.58
80335;BME280;69653;52.674;13.574;2023-08-20T12:13:36;101313.69;;;34.25;35.31
80335;BME280;69653;52.674;13.574;2023-08-20T12:16:01;101296.53;;;34.45;35.07
80335;BME280;69653;52.674;13.574;2023-08-20T12:18:26;101305.84;;;34.62;33.98
80335;BME280;69653;52.674;13.574;2023-08-20T12:20:52;101294.91;;;34.60;34.03
80335;BME280;69653;52.674;13.574;2023-08-20T12:23:17;101298.97;;;34.75;34.61
80335;BME280;69653;52.674;13.574;2023-08-20T12:25:42;101303.88;;;34.58;34.21
80335;BME280;69653;52.674;13.574;2023-08-20T12:28:08;101299.72;;;34.47;34.18
80335;BME280;69653;52.674;13.574;2023-08-20T12:30:33;101297.16;;;34.36;32.78
80335;BME280;69653;52.674;13.574;2023-08-20T12:33:01;101286.19;;;34.22;31.92
80335;BME280;69653;52.674;13.574;2023-08-20T12:35:28;101293.47;;;34.07;34.19
80335;BME280;69653;52.674;13.574;2023-08-20T12:37:53;101286.22;;;33.90;33.31
80335;BME280;69653;52.674;13.574;2023-08-20T12:40:19;101280.09;;;33.75;34.16
80335;BME280;69653;52.674;13.574;2023-08-20T12:42:44;101278.13;;;33.72;33.59
80335;BME280;69653;52.674;13.574;2023-08-20T12:45:09;101274.44;;;33.55;35.03
80335;BME280;69653;52.674;13.574;2023-08-20T12:47:35;101283.72;;;33.76;34.84